Time;durP1;ratioP1;P1;durP2;ratioP2;P2;SDS_P1;SDS_P2;PMS_P1;PMS_P2;Temp;Humidity;BMP_temperature;BMP_pressure;BME280_temperature;BME280_humidity;BME280_pressure;Samples;Min_cycle;Max_cycle;Signal;HPM_P1;HPM_P2
2023/03/23 00:01:26;;;;;;;19.63;15.23;;;11.00;99.90;;;;;;4972695;28;20042;-77
2023/03/23 00:03:56;;;;;;;19.70;16.58;;;10.90;99.90;;;;;;4978948;28;20106;-77
2023/03/23 00:06:24;;;;;;;21.17;15.73;;;11.00;99.90;;;;;;4983359;28;20059;-76
2023/03/23 00:08:56;;;;;;;20.57;17.13;;;10.90;99.90;;;;;;4963287;28;20125;-77
2023/03/23 00:11:26;;;;;;;20.55;16.00;;;11.00;99.90;;;;;;4983657;28;20054;-76
2023/03/23 00:13:52;;;;;;;17.25;15.48;;;10.90;99.90;;;;;;4984452;28;20043;-76
2023/03/23 00:16:20;;;;;;;19.17;16.58;;;10.90;99.90;;;;;;4968643;28;20051;-76
2023/03/23 00:18:47;;;;;;;17.50;15.70;;;10.90;99.90;;;;;;4968772;28;20051;-76
2023/03/23 00:21:13;;;;;;;18.15;16.20;;;10.90;99.90;;;;;;4981254;28;20146;-76
2023/03/23 00:23:39;;;;;;;18.90;14.98;;;10.90;99.90;;;;;;4977343;28;20133;-76
2023/03/23 00:26:06;;;;;;;19.65;15.85;;;10.90;99.90;;;;;;4971363;28;20059;-76
2023/03/23 00:28:32;;;;;;;20.00;14.77;;;10.90;99.90;;;;;;4972320;28;20050;-77
2023/03/23 00:31:00;;;;;;;17.27;14.73;;;10.90;99.90;;;;;;4971692;28;20407;-77
2023/03/23 00:33:28;;;;;;;19.33;16.27;;;10.90;99.90;;;;;;4974439;28;20054;-77
2023/03/23 00:35:54;;;;;;;24.08;15.73;;;10.90;99.90;;;;;;4990408;28;20058;-76
2023/03/23 00:38:22;;;;;;;20.35;14.82;;;10.90;99.90;;;;;;4973579;28;20502;-77
2023/03/23 00:40:48;;;;;;;26.67;16.98;;;10.90;99.90;;;;;;4990234;28;20057;-77
2023/03/23 00:43:16;;;;;;;20.73;15.60;;;10.90;99.90;;;;;;4992449;28;20054;-76
2023/03/23 00:45:44;;;;;;;17.42;14.75;;;10.90;99.90;;;;;;4991302;28;20046;-76
2023/03/23 00:48:12;;;;;;;;;;;10.90;99.90;;;;;;4993230;28;20050;-77
2023/03/23 00:50:38;;;;;;;22.42;15.30;;;10.90;99.90;;;;;;4991451;28;19988;-76
2023/03/23 00:53:04;;;;;;;16.90;14.43;;;10.80;99.90;;;;;;4989781;28;20042;-76
2023/03/23 00:55:30;;;;;;;18.67;16.33;;;10.80;99.90;;;;;;4984320;28;20409;-77
2023/03/23 00:57:56;;;;;;;23.08;14.23;;;10.80;99.90;;;;;;4989412;28;20066;-76
2023/03/23 01:00:23;;;;;;;18.35;13.77;;;10.90;99.90;;;;;;4998217;28;20053;-76
2023/03/23 01:02:51;;;;;;;16.20;13.48;;;10.90;99.90;;;;;;4990177;28;20105;-77
2023/03/23 01:05:17;;;;;;;15.80;13.75;;;10.90;99.90;;;;;;4973936;28;20063;-76
2023/03/23 01:07:44;;;;;;;15.18;12.90;;;10.90;99.90;;;;;;4974141;28;20038;-76
2023/03/23 01:10:18;;;;;;;24.85;13.80;;;10.90;99.90;;;;;;4989321;28;20119;-76
2023/03/23 01:12:47;;;;;;;33.75;13.90;;;10.90;99.90;;;;;;4989899;28;20096;-76
2023/03/23 01:15:15;;;;;;;14.88;12.75;;;10.90;99.90;;;;;;4990984;28;20089;-76
2023/03/23 01:17:42;;;;;;;15.13;12.23;;;10.90;99.90;;;;;;4974490;28;20065;-76
2023/03/23 01:20:09;;;;;;;14.15;12.77;;;10.90;99.90;;;;;;4976733;28;20050;-76
2023/03/23 01:22:35;;;;;;;17.77;11.20;;;10.90;99.90;;;;;;4990798;28;20050;-76
2023/03/23 01:25:01;;;;;;;12.63;10.50;;;10.90;99.90;;;;;;4973817;28;20065;-76
2023/03/23 01:27:28;;;;;;;13.60;10.68;;;10.90;99.90;;;;;;4982084;28;20046;-76
2023/03/23 01:29:53;;;;;;;11.95;10.57;;;10.80;99.90;;;;;;4972053;28;20454;-76
2023/03/23 01:32:19;;;;;;;9.88;8.60;;;10.80;99.90;;;;;;4973368;28;20061;-77
2023/03/23 01:34:45;;;;;;;9.65;8.32;;;10.80;99.90;;;;;;4957589;28;20061;-76
2023/03/23 01:37:11;;;;;;;16.15;8.48;;;10.80;99.90;;;;;;4965909;28;20043;-76
2023/03/23 01:39:37;;;;;;;10.38;7.20;;;10.80;99.90;;;;;;4989499;28;20169;-76
2023/03/23 01:42:03;;;;;;;9.35;8.40;;;10.80;99.90;;;;;;4970975;28;20141;-76
2023/03/23 01:44:32;;;;;;;10.00;7.13;;;10.80;99.90;;;;;;4971767;28;20050;-76
2023/03/23 01:46:57;;;;;;;8.43;7.28;;;10.80;99.90;;;;;;4972229;28;20035;-76
2023/03/23 01:49:44;;;;;;;8.70;7.00;;;10.70;99.90;;;;;;4990438;28;20050;-76
2023/03/23 01:52:26;;;;;;;8.15;6.68;;;10.70;99.90;;;;;;4971735;28;20060;-76
2023/03/23 01:54:55;;;;;;;9.80;6.28;;;10.70;99.90;;;;;;4989733;28;20130;-76
2023/03/23 01:57:23;;;;;;;8.45;6.80;;;10.60;99.90;;;;;;4974961;28;20129;-76
2023/03/23 01:59:51;;;;;;;8.50;6.60;;;10.60;99.90;;;;;;4975096;28;20389;-75
2023/03/23 02:02:21;;;;;;;9.38;6.78;;;10.70;99.90;;;;;;4970171;28;20046;-75
2023/03/23 02:04:46;;;;;;;10.52;7.28;;;10.60;99.90;;;;;;4973124;28;20060;-75
2023/03/23 02:07:15;;;;;;;13.05;8.45;;;10.70;99.90;;;;;;4989445;28;20050;-75
2023/03/23 02:09:42;;;;;;;9.10;8.10;;;10.70;99.90;;;;;;4973475;28;20582;-75
2023/03/23 02:12:07;;;;;;;11.82;6.80;;;10.70;99.90;;;;;;4969801;28;20050;-76
2023/03/23 02:14:34;;;;;;;10.68;7.90;;;10.80;99.90;;;;;;4987553;28;20060;-76
2023/03/23 02:17:30;;;;;;;9.95;7.60;;;10.80;99.90;;;;;;4970073;28;20058;-76
2023/03/23 02:20:24;;;;;;;12.98;7.85;;;10.80;99.90;;;;;;4985424;28;20058;-75
2023/03/23 02:23:24;;;;;;;10.95;8.10;;;10.80;99.90;;;;;;4968857;28;20097;-75
2023/03/23 02:26:00;;;;;;;10.55;8.18;;;10.80;99.90;;;;;;4980592;28;20058;-75
2023/03/23 02:28:46;;;;;;;7.95;6.65;;;10.70;99.90;;;;;;4970177;28;20051;-76
2023/03/23 02:31:13;;;;;;;10.52;7.25;;;10.80;99.90;;;;;;4985171;28;20050;-75
2023/03/23 02:34:00;;;;;;;15.52;7.60;;;10.70;99.90;;;;;;4969187;28;20051;-76
2023/03/23 02:36:43;;;;;;;10.57;6.70;;;10.70;99.90;;;;;;4963035;28;20854;-76
2023/03/23 02:39:18;;;;;;;6.70;6.00;;;10.70;99.90;;;;;;4968545;28;20534;-76
2023/03/23 02:41:51;;;;;;;7.35;5.80;;;10.70;99.90;;;;;;4969336;28;20109;-76
2023/03/23 02:44:17;;;;;;;8.25;6.43;;;10.80;99.90;;;;;;4965412;28;20086;-75
2023/03/23 02:46:44;;;;;;;8.00;6.00;;;10.70;99.90;;;;;;4970301;28;20061;-75
2023/03/23 02:49:13;;;;;;;10.23;6.22;;;10.70;99.90;;;;;;4985483;28;20054;-75
2023/03/23 02:51:40;;;;;;;6.78;5.75;;;10.80;99.90;;;;;;4967928;28;20051;-76
2023/03/23 02:54:07;;;;;;;10.27;6.50;;;10.80;99.90;;;;;;4967896;28;20885;-75
2023/03/23 02:56:33;;;;;;;8.20;5.95;;;10.80;99.90;;;;;;4970041;28;20097;-75
2023/03/23 02:58:59;;;;;;;9.43;6.40;;;10.80;99.90;;;;;;4967216;28;20039;-76
2023/03/23 03:01:25;;;;;;;9.35;6.63;;;10.80;99.90;;;;;;4973733;28;20078;-75
2023/03/23 03:03:52;;;;;;;8.05;6.07;;;10.80;99.90;;;;;;4984917;28;20097;-75
2023/03/23 03:06:36;;;;;;;8.90;6.18;;;10.80;99.90;;;;;;4967360;28;20157;-75
2023/03/23 03:09:09;;;;;;;9.65;6.55;;;10.80;99.90;;;;;;4967165;28;20058;-75
2023/03/23 03:11:37;;;;;;;10.15;7.25;;;10.80;99.90;;;;;;4971653;28;20086;-76
2023/03/23 03:14:12;;;;;;;10.88;7.97;;;10.70;99.90;;;;;;4969799;28;20034;-76
2023/03/23 03:16:45;;;;;;;8.07;6.47;;;10.70;99.90;;;;;;4984420;28;20103;-76
2023/03/23 03:19:28;;;;;;;12.35;7.88;;;10.70;99.90;;;;;;4984454;28;20126;-76
2023/03/23 03:21:57;;;;;;;8.90;7.43;;;10.80;99.90;;;;;;4969198;28;20722;-75
2023/03/23 03:24:26;;;;;;;11.48;7.40;;;10.70;99.90;;;;;;4962342;28;20058;-76
2023/03/23 03:26:57;;;;;;;8.75;7.15;;;10.80;99.90;;;;;;4964577;28;20082;-75
2023/03/23 03:29:29;;;;;;;9.57;7.30;;;10.80;99.90;;;;;;4967770;28;20507;-75
2023/03/23 03:31:56;;;;;;;13.30;8.95;;;10.80;99.90;;;;;;4967915;28;20055;-76
2023/03/23 03:34:24;;;;;;;9.73;7.15;;;10.80;99.90;;;;;;4969663;28;20137;-76
2023/03/23 03:36:53;;;;;;;9.98;6.43;;;10.80;99.90;;;;;;4969205;28;20511;-75
2023/03/23 03:39:20;;;;;;;8.63;7.18;;;10.80;99.90;;;;;;4958244;28;20050;-75
2023/03/23 03:41:46;;;;;;;10.10;7.00;;;10.80;99.90;;;;;;4965219;28;20059;-75
2023/03/23 03:44:12;;;;;;;10.25;6.95;;;10.80;99.90;;;;;;4968472;28;20051;-75
2023/03/23 03:46:38;;;;;;;9.13;6.28;;;10.80;99.90;;;;;;4969934;28;20057;-75
2023/03/23 03:49:06;;;;;;;8.15;5.93;;;10.80;99.90;;;;;;4970055;28;20068;-75
2023/03/23 03:51:34;;;;;;;8.68;7.05;;;10.80;99.90;;;;;;4970355;28;20042;-75
2023/03/23 03:54:00;;;;;;;10.13;8.00;;;10.80;99.90;;;;;;4961043;28;20058;-75
2023/03/23 03:56:26;;;;;;;7.88;6.82;;;10.80;99.90;;;;;;4968348;28;20058;-76
2023/03/23 03:58:52;;;;;;;13.27;7.68;;;10.90;99.90;;;;;;4966646;28;20047;-75
2023/03/23 04:01:23;;;;;;;10.45;8.18;;;10.90;99.90;;;;;;4985014;28;20574;-76
2023/03/23 04:03:50;;;;;;;10.02;6.93;;;10.90;99.90;;;;;;4968748;28;20130;-76
2023/03/23 04:06:17;;;;;;;9.57;6.95;;;10.90;99.90;;;;;;4967485;28;20054;-76
2023/03/23 04:08:44;;;;;;;9.18;7.68;;;11.00;99.90;;;;;;4969239;28;20065;-75
2023/03/23 04:11:12;;;;;;;9.80;7.82;;;11.00;99.90;;;;;;4971298;28;20078;-76
2023/03/23 04:13:38;;;;;;;10.82;8.57;;;11.00;99.90;;;;;;4969463;28;20054;-75
2023/03/23 04:16:04;;;;;;;10.95;7.63;;;11.00;99.90;;;;;;4971425;28;20053;-75
2023/03/23 04:18:32;;;;;;;8.57;7.45;;;11.00;99.90;;;;;;4968871;28;20506;-75
2023/03/23 04:21:00;;;;;;;11.13;8.10;;;11.00;99.90;;;;;;4971584;28;20113;-75
2023/03/23 04:23:31;;;;;;;9.23;7.20;;;11.00;99.90;;;;;;4969014;28;20050;-75
2023/03/23 04:25:57;;;;;;;8.45;7.65;;;11.00;99.90;;;;;;4971255;28;20057;-75
2023/03/23 04:28:24;;;;;;;9.18;8.27;;;11.00;99.90;;;;;;4981969;28;20109;-75
2023/03/23 04:30:53;;;;;;;10.98;7.95;;;11.10;99.90;;;;;;4968830;28;20039;-75
2023/03/23 04:33:21;;;;;;;20.20;8.63;;;11.10;99.90;;;;;;4969918;28;20047;-75
2023/03/23 04:35:47;;;;;;;10.95;8.18;;;11.10;99.90;;;;;;4967943;28;20043;-75
2023/03/23 04:38:15;;;;;;;9.35;8.30;;;11.00;99.90;;;;;;4972359;28;20047;-75
2023/03/23 04:40:43;;;;;;;12.50;8.75;;;11.10;99.90;;;;;;4967195;28;20046;-75
2023/03/23 04:43:12;;;;;;;9.55;8.13;;;11.10;99.90;;;;;;4970599;28;20057;-75
2023/03/23 04:45:41;;;;;;;10.90;8.50;;;11.10;99.90;;;;;;4965229;28;20057;-75
2023/03/23 04:48:07;;;;;;;9.68;8.77;;;11.10;99.90;;;;;;4971504;28;20043;-75
2023/03/23 04:50:34;;;;;;;14.40;10.38;;;11.10;99.90;;;;;;4968176;28;20035;-75
2023/03/23 04:53:03;;;;;;;13.02;8.27;;;11.20;99.90;;;;;;4971830;28;20051;-75
2023/03/23 04:55:31;;;;;;;12.50;8.55;;;11.20;99.90;;;;;;4966250;28;20097;-75
2023/03/23 04:58:00;;;;;;;11.65;9.10;;;11.20;99.90;;;;;;4970564;28;20043;-74
2023/03/23 05:00:26;;;;;;;18.38;8.25;;;11.20;99.90;;;;;;4973705;28;20508;-75
2023/03/23 05:02:52;;;;;;;14.68;9.13;;;11.10;99.90;;;;;;4970152;28;20053;-75
2023/03/23 05:05:19;;;;;;;12.02;8.15;;;11.10;99.90;;;;;;4970364;28;20053;-75
2023/03/23 05:07:46;;;;;;;19.95;10.98;;;11.20;99.90;;;;;;4968868;28;20523;-75
2023/03/23 05:10:13;;;;;;;16.30;9.85;;;11.10;99.90;;;;;;4970902;28;20148;-74
2023/03/23 05:12:39;;;;;;;12.95;7.60;;;11.10;99.90;;;;;;4971651;28;20046;-75
2023/03/23 05:15:06;;;;;;;7.30;4.05;;;11.00;99.90;;;;;;4971304;28;20146;-76
2023/03/23 05:17:33;;;;;;;3.90;3.03;;;10.80;99.90;;;;;;4971476;28;20061;-76
2023/03/23 05:19:59;;;;;;;6.00;4.38;;;10.60;99.90;;;;;;4970603;28;20050;-76
2023/03/23 05:22:28;;;;;;;8.70;6.40;;;10.50;99.90;;;;;;4970941;28;20061;-75
2023/03/23 05:24:54;;;;;;;8.55;6.65;;;10.50;99.90;;;;;;4948567;28;20572;-76
2023/03/23 05:27:20;;;;;;;9.70;5.95;;;10.40;99.90;;;;;;4950696;29;20094;-76
2023/03/23 05:29:49;;;;;;;11.90;6.82;;;10.40;99.90;;;;;;4952907;28;20043;-77
2023/03/23 05:32:18;;;;;;;13.20;7.25;;;10.40;99.90;;;;;;4963298;28;20050;-77
2023/03/23 05:34:46;;;;;;;9.05;5.93;;;10.40;99.90;;;;;;4948701;29;20059;-77
2023/03/23 05:37:13;;;;;;;9.43;5.82;;;10.40;99.90;;;;;;4948565;28;20054;-77
2023/03/23 05:39:39;;;;;;;10.55;5.38;;;10.30;99.90;;;;;;4964554;28;20520;-77
2023/03/23 05:42:07;;;;;;;9.07;5.13;;;10.30;99.90;;;;;;4948834;29;20047;-76
2023/03/23 05:44:33;;;;;;;21.38;5.75;;;10.30;99.90;;;;;;4944593;29;20162;-76
2023/03/23 05:46:59;;;;;;;17.35;6.00;;;10.30;99.90;;;;;;4966445;28;20087;-76
2023/03/23 05:49:26;;;;;;;11.77;5.95;;;10.20;99.90;;;;;;4949401;28;20122;-76
2023/03/23 05:51:51;;;;;;;10.93;5.28;;;10.20;99.90;;;;;;4951594;28;20879;-76
2023/03/23 05:54:17;;;;;;;8.57;4.78;;;10.20;99.90;;;;;;4943231;29;20102;-76
2023/03/23 05:56:43;;;;;;;10.45;5.07;;;10.20;99.90;;;;;;4964891;28;20047;-76
2023/03/23 05:59:10;;;;;;;8.80;4.78;;;10.30;99.90;;;;;;4945619;28;20082;-76
2023/03/23 06:01:37;;;;;;;12.35;6.00;;;10.30;99.90;;;;;;4947677;29;20047;-76
2023/03/23 06:04:04;;;;;;;13.93;5.38;;;10.30;99.90;;;;;;4950971;29;20055;-76
2023/03/23 06:06:31;;;;;;;15.43;4.90;;;10.30;99.90;;;;;;4947860;28;20055;-76
2023/03/23 06:08:58;;;;;;;11.68;4.72;;;10.30;99.90;;;;;;4946401;29;20050;-76
2023/03/23 06:11:24;;;;;;;14.73;5.47;;;10.30;99.90;;;;;;4949623;28;20501;-76
2023/03/23 06:13:50;;;;;;;13.00;5.07;;;10.30;99.90;;;;;;4950723;29;20054;-75
2023/03/23 06:16:16;;;;;;;10.23;4.28;;;10.30;99.90;;;;;;4948440;28;20047;-76
2023/03/23 06:18:42;;;;;;;10.68;4.00;;;10.30;99.90;;;;;;4951791;28;20496;-75
2023/03/23 06:21:10;;;;;;;16.75;5.10;;;10.30;99.90;;;;;;4947402;29;20729;-75
2023/03/23 06:23:37;;;;;;;9.27;4.75;;;10.20;99.90;;;;;;4958229;28;20170;-75
2023/03/23 06:26:05;;;;;;;9.32;3.35;;;10.20;99.90;;;;;;4968217;28;20062;-75
2023/03/23 06:28:32;;;;;;;9.07;3.80;;;10.20;99.90;;;;;;4966416;28;20500;-75
2023/03/23 06:31:04;;;;;;;10.07;4.30;;;10.20;99.90;;;;;;4969594;28;20038;-75
2023/03/23 06:33:30;;;;;;;16.80;4.55;;;10.20;99.90;;;;;;4984971;28;20055;-75
2023/03/23 06:35:57;;;;;;;8.85;3.90;;;10.10;99.90;;;;;;4968181;28;20039;-75
2023/03/23 06:38:23;;;;;;;7.00;4.15;;;10.20;99.90;;;;;;4982628;28;20055;-75
2023/03/23 06:40:52;;;;;;;6.85;3.55;;;10.20;99.90;;;;;;4967292;28;20534;-75
2023/03/23 06:43:17;;;;;;;10.18;4.90;;;10.20;99.90;;;;;;4969113;28;20177;-75
2023/03/23 06:45:43;;;;;;;10.55;3.95;;;10.20;99.90;;;;;;4985601;28;20141;-75
2023/03/23 06:48:09;;;;;;;12.50;5.20;;;10.20;99.90;;;;;;4969603;28;20050;-75
2023/03/23 06:50:34;;;;;;;16.35;5.18;;;10.30;99.90;;;;;;4969130;28;20046;-75
2023/03/23 06:53:00;;;;;;;12.90;5.38;;;10.30;99.90;;;;;;4967081;28;20126;-74
2023/03/23 06:55:26;;;;;;;10.43;4.72;;;10.30;99.90;;;;;;4984941;28;20039;-74
2023/03/23 06:57:52;;;;;;;11.10;5.22;;;10.30;99.90;;;;;;4969180;28;20080;-75
2023/03/23 07:00:17;;;;;;;15.95;4.85;;;10.30;99.90;;;;;;4972095;28;20190;-74
2023/03/23 07:02:44;;;;;;;19.90;6.65;;;10.40;99.90;;;;;;4983122;28;20396;-75
2023/03/23 07:05:10;;;;;;;14.95;5.82;;;10.40;99.90;;;;;;4967377;28;20451;-74
2023/03/23 07:07:40;;;;;;;15.93;6.47;;;10.50;99.90;;;;;;4983086;28;20070;-74
2023/03/23 07:10:08;;;;;;;14.90;6.13;;;10.50;99.90;;;;;;4966950;28;20066;-74
2023/03/23 07:12:35;;;;;;;21.92;7.18;;;10.50;99.90;;;;;;4968882;28;20516;-74
2023/03/23 07:15:05;;;;;;;16.23;5.72;;;10.50;99.90;;;;;;4970849;28;20114;-74
2023/03/23 07:17:31;;;;;;;28.27;6.53;;;10.60;99.90;;;;;;4968575;28;20050;-74
2023/03/23 07:19:57;;;;;;;26.10;7.10;;;10.60;99.90;;;;;;4970498;28;20051;-74
2023/03/23 07:22:23;;;;;;;22.25;5.93;;;10.60;99.90;;;;;;4969279;28;20050;-74
2023/03/23 07:24:48;;;;;;;16.33;6.60;;;10.60;99.90;;;;;;4986893;28;20054;-74
2023/03/23 07:27:15;;;;;;;20.23;6.97;;;10.70;99.90;;;;;;4970991;28;20129;-73
2023/03/23 07:29:40;;;;;;;18.05;6.45;;;10.70;99.90;;;;;;4989141;28;20046;-74
2023/03/23 07:32:10;;;;;;;22.05;7.78;;;10.70;99.90;;;;;;4984588;28;20463;-74
2023/03/23 07:34:37;;;;;;;30.27;8.27;;;10.80;99.90;;;;;;4989668;28;20133;-74
2023/03/23 07:37:03;;;;;;;22.42;7.80;;;10.80;99.90;;;;;;4971823;28;20105;-74
2023/03/23 07:39:28;;;;;;;19.75;7.18;;;10.80;99.90;;;;;;4971801;28;20096;-74
2023/03/23 07:41:54;;;;;;;16.77;6.53;;;10.80;99.90;;;;;;4983774;28;20042;-75
2023/03/23 07:44:20;;;;;;;28.58;7.53;;;10.90;99.90;;;;;;4971305;28;20054;-75
2023/03/23 07:46:46;;;;;;;35.72;7.72;;;11.00;99.90;;;;;;4987900;28;20057;-75
2023/03/23 07:49:12;;;;;;;20.80;6.80;;;11.20;99.90;;;;;;4968972;28;20724;-74
2023/03/23 07:51:39;;;;;;;24.67;6.70;;;11.40;99.90;;;;;;4984245;28;20053;-75
2023/03/23 07:54:07;;;;;;;24.15;7.45;;;11.60;99.90;;;;;;4985400;28;20594;-75
2023/03/23 07:56:36;;;;;;;29.33;8.05;;;11.70;99.90;;;;;;4988009;28;20104;-74
2023/03/23 07:59:06;;;;;;;21.55;6.97;;;11.80;99.90;;;;;;4974483;28;20042;-74
2023/03/23 08:01:32;;;;;;;26.50;7.57;;;11.80;99.90;;;;;;4984616;28;20444;-74
2023/03/23 08:03:59;;;;;;;20.85;7.97;;;11.80;99.90;;;;;;4987258;28;20045;-74
2023/03/23 08:06:25;;;;;;;19.05;6.90;;;11.70;99.90;;;;;;4970909;28;20057;-74
2023/03/23 08:08:51;;;;;;;16.92;6.13;;;11.70;99.90;;;;;;4987338;28;20054;-74
2023/03/23 08:11:18;;;;;;;17.55;7.20;;;11.70;99.90;;;;;;4988050;28;20042;-75
2023/03/23 08:13:46;;;;;;;24.45;6.78;;;11.70;99.90;;;;;;4988754;28;20573;-74
2023/03/23 08:16:13;;;;;;;;;;;11.70;99.90;;;;;;4963683;28;20101;-74
2023/03/23 08:18:39;;;;;;;21.52;7.15;;;11.70;99.90;;;;;;4964980;28;20587;-74
2023/03/23 08:21:08;;;;;;;21.95;7.82;;;11.70;99.90;;;;;;4972849;28;20054;-74
2023/03/23 08:23:35;;;;;;;22.67;7.15;;;11.80;99.90;;;;;;4987271;28;20499;-74
2023/03/23 08:26:01;;;;;;;31.80;7.53;;;11.80;99.90;;;;;;4967346;28;20059;-74
2023/03/23 08:28:27;;;;;;;25.08;8.30;;;11.80;99.90;;;;;;4989433;28;20046;-75
2023/03/23 08:30:52;;;;;;;33.75;8.43;;;11.90;99.90;;;;;;4979291;28;20089;-75
2023/03/23 08:33:18;;;;;;;25.88;7.35;;;11.90;99.90;;;;;;4966685;28;20398;-75
2023/03/23 08:35:44;;;;;;;25.33;7.00;;;12.00;99.90;;;;;;4983744;28;20523;-74
2023/03/23 08:38:11;;;;;;;22.67;6.80;;;12.00;99.90;;;;;;4987503;28;20053;-74
2023/03/23 08:40:38;;;;;;;29.80;7.25;;;12.00;99.90;;;;;;4985465;28;20896;-74
2023/03/23 08:43:05;;;;;;;22.90;6.43;;;12.10;99.90;;;;;;4981460;28;20826;-74
2023/03/23 08:45:31;;;;;;;17.07;8.10;;;12.10;99.90;;;;;;4969989;28;20043;-74
2023/03/23 08:47:58;;;;;;;29.23;7.15;;;12.10;99.90;;;;;;4986261;28;20058;-74
2023/03/23 08:50:26;;;;;;;24.88;7.95;;;12.10;99.90;;;;;;4983587;28;20093;-74
2023/03/23 08:52:53;;;;;;;22.77;6.65;;;12.10;99.90;;;;;;4989333;28;20133;-74
2023/03/23 08:55:21;;;;;;;19.52;6.55;;;12.10;99.90;;;;;;4987678;28;20482;-74
2023/03/23 08:57:47;;;;;;;26.55;7.40;;;12.10;99.90;;;;;;4988245;28;20046;-75
2023/03/23 09:00:19;;;;;;;17.08;7.00;;;12.20;99.90;;;;;;4988870;28;20093;-75
2023/03/23 09:02:50;;;;;;;19.23;7.38;;;12.20;99.90;;;;;;4973111;28;20058;-75
2023/03/23 09:05:17;;;;;;;16.65;6.68;;;12.40;99.90;;;;;;4983423;28;20047;-75
2023/03/23 09:07:46;;;;;;;33.13;7.55;;;12.50;99.90;;;;;;4973554;28;20047;-75
2023/03/23 09:10:13;;;;;;;17.25;6.43;;;12.60;99.90;;;;;;4973825;28;20050;-75
2023/03/23 09:12:40;;;;;;;26.95;7.78;;;12.60;99.90;;;;;;4973032;28;20069;-75
2023/03/23 09:15:08;;;;;;;31.70;9.25;;;12.60;99.90;;;;;;4980311;28;20202;-75
2023/03/23 09:17:36;;;;;;;30.40;8.32;;;12.60;99.90;;;;;;4972808;28;20050;-75
2023/03/23 09:20:07;;;;;;;32.55;7.57;;;12.70;99.90;;;;;;4971151;28;20068;-75
2023/03/23 09:22:33;;;;;;;22.20;7.25;;;12.80;99.90;;;;;;4988302;28;20140;-75
2023/03/23 09:25:00;;;;;;;24.10;9.05;;;12.90;99.90;;;;;;4989250;28;20162;-75
2023/03/23 09:27:25;;;;;;;16.60;6.68;;;12.90;99.90;;;;;;4969227;28;20057;-75
2023/03/23 09:29:51;;;;;;;22.70;7.68;;;12.90;99.90;;;;;;4991095;28;20047;-75
2023/03/23 09:32:17;;;;;;;31.48;9.57;;;13.00;99.90;;;;;;4990923;28;20066;-75
2023/03/23 09:34:43;;;;;;;31.23;8.75;;;13.20;99.90;;;;;;4987446;28;20043;-75
2023/03/23 09:37:09;;;;;;;21.13;7.03;;;13.30;99.90;;;;;;4985474;28;20090;-75
2023/03/23 09:39:34;;;;;;;20.10;7.90;;;13.40;99.90;;;;;;4988402;28;20613;-75
2023/03/23 09:42:12;;;;;;;17.85;6.78;;;13.40;99.90;;;;;;4989777;28;20058;-75
2023/03/23 09:45:26;;;;;;;27.17;7.60;;;13.30;99.90;;;;;;4988302;28;20046;-75
2023/03/23 09:47:52;;;;;;;29.30;6.95;;;13.20;99.90;;;;;;4966033;28;20108;-74
2023/03/23 09:50:26;;;;;;;21.77;7.03;;;13.10;99.90;;;;;;4990713;28;20050;-75
2023/03/23 09:52:58;;;;;;;17.48;7.30;;;13.10;99.90;;;;;;4972881;28;20085;-75
2023/03/23 09:55:25;;;;;;;25.33;8.45;;;13.20;99.90;;;;;;4989534;28;20570;-75
2023/03/23 09:58:09;;;;;;;28.80;8.25;;;13.20;99.90;;;;;;4973404;28;22164;-75
2023/03/23 10:00:44;;;;;;;28.88;9.82;;;13.30;99.90;;;;;;4972466;28;20050;-75
2023/03/23 10:03:19;;;;;;;17.73;7.07;;;13.40;99.90;;;;;;4989309;28;20575;-75
2023/03/23 10:05:51;;;;;;;13.07;5.97;;;13.40;99.90;;;;;;4988782;28;20053;-75
2023/03/23 10:08:23;;;;;;;21.15;6.80;;;13.40;99.90;;;;;;4969684;28;20771;-75
2023/03/23 10:11:09;;;;;;;26.58;7.18;;;13.50;99.90;;;;;;4987901;28;20121;-75
2023/03/23 10:13:40;;;;;;;18.40;6.25;;;13.80;99.90;;;;;;4968529;28;20117;-75
2023/03/23 10:16:14;;;;;;;17.70;5.65;;;14.00;99.90;;;;;;4981142;28;20495;-75
2023/03/23 10:18:56;;;;;;;21.88;6.22;;;14.10;99.90;;;;;;4969707;28;20044;-75
2023/03/23 10:21:23;;;;;;;23.30;5.68;;;14.30;99.90;;;;;;4988434;28;20447;-75
2023/03/23 10:24:01;;;;;;;27.08;7.47;;;14.50;99.90;;;;;;4988496;28;20043;-75
2023/03/23 10:26:38;;;;;;;17.07;5.47;;;14.70;99.90;;;;;;4954894;28;20407;-75
2023/03/23 10:29:20;;;;;;;21.30;5.75;;;14.90;99.90;;;;;;4967563;28;20049;-75
2023/03/23 10:31:55;;;;;;;10.10;5.03;;;14.90;99.90;;;;;;4971235;28;20054;-75
2023/03/23 10:34:28;;;;;;;29.88;4.95;;;14.80;99.90;;;;;;4989010;28;20415;-75
2023/03/23 10:37:23;;;;;;;20.40;6.32;;;14.80;99.90;;;;;;4989654;28;20046;-75
2023/03/23 10:39:56;;;;;;;16.00;6.60;;;14.50;99.90;;;;;;4944548;28;20104;-75
2023/03/23 10:42:27;;;;;;;16.67;5.97;;;14.30;99.90;;;;;;4971857;28;20050;-75
2023/03/23 10:44:54;;;;;;;17.15;6.20;;;14.10;99.90;;;;;;4987830;28;20078;-75
2023/03/23 10:47:20;;;;;;;23.77;5.90;;;14.10;99.90;;;;;;4988483;28;20050;-75
2023/03/23 10:49:49;;;;;;;13.93;5.13;;;14.10;99.90;;;;;;4970972;28;20053;-75
2023/03/23 10:52:37;;;;;;;20.40;4.50;;;14.10;99.90;;;;;;4984356;28;20054;-75
2023/03/23 10:55:11;;;;;;;12.88;5.53;;;14.00;99.90;;;;;;4971930;28;20488;-75
2023/03/23 10:57:39;;;;;;;16.48;5.25;;;14.00;99.90;;;;;;4989412;28;20112;-75
2023/03/23 11:00:08;;;;;;;;;;;14.10;99.90;;;;;;4989598;28;20806;-75
2023/03/23 11:02:45;;;;;;;15.98;4.95;;;14.10;99.90;;;;;;4988892;28;19926;-75
2023/03/23 11:05:45;;;;;;;12.95;4.88;;;14.10;99.90;;;;;;4981174;28;20057;-75
2023/03/23 11:08:18;;;;;;;13.02;5.43;;;14.40;99.90;;;;;;4966984;28;20082;-75
2023/03/23 11:10:53;;;;;;;11.63;4.63;;;14.50;99.90;;;;;;4985537;28;20510;-75
2023/03/23 11:13:21;;;;;;;15.98;4.85;;;14.70;99.90;;;;;;4989180;28;20034;-75
2023/03/23 11:15:48;;;;;;;13.38;4.88;;;14.90;99.90;;;;;;4971824;28;20046;-75
2023/03/23 11:18:26;;;;;;;12.07;5.35;;;15.10;99.90;;;;;;4988883;28;20065;-75
2023/03/23 11:20:57;;;;;;;14.52;5.07;;;15.30;99.90;;;;;;4966883;28;20078;-75
2023/03/23 11:23:26;;;;;;;8.98;4.30;;;15.30;99.90;;;;;;4979713;28;20058;-75
2023/03/23 11:26:16;;;;;;;11.68;5.38;;;15.20;99.90;;;;;;4984759;28;20878;-75
2023/03/23 11:28:51;;;;;;;14.85;4.43;;;15.20;99.90;;;;;;4988753;28;20407;-75
2023/03/23 11:31:21;;;;;;;19.48;5.97;;;15.30;99.90;;;;;;4988773;28;20062;-74
2023/03/23 11:33:52;;;;;;;11.45;4.63;;;15.30;99.90;;;;;;4971701;28;20082;-75
2023/03/23 11:36:18;;;;;;;11.68;5.00;;;15.30;99.90;;;;;;4970491;28;20051;-75
2023/03/23 11:38:44;;;;;;;15.95;5.93;;;15.30;99.90;;;;;;4985491;28;20031;-74
2023/03/23 11:41:11;;;;;;;14.63;4.68;;;15.50;99.90;;;;;;4988149;28;20161;-75
2023/03/23 11:43:45;;;;;;;11.68;5.03;;;15.70;99.90;;;;;;4970879;28;20069;-74
2023/03/23 11:46:23;;;;;;;15.18;5.07;;;16.00;99.90;;;;;;4988727;28;20054;-75
2023/03/23 11:49:01;;;;;;;11.18;5.80;;;16.10;99.90;;;;;;4985418;28;20657;-74
2023/03/23 11:51:38;;;;;;;11.45;4.88;;;16.30;99.90;;;;;;4988638;28;20691;-75
2023/03/23 11:54:07;;;;;;;20.50;5.15;;;16.10;99.90;;;;;;4971029;28;20050;-74
2023/03/23 11:56:38;;;;;;;19.83;4.43;;;15.90;99.90;;;;;;4987444;28;20254;-74
2023/03/23 11:59:14;;;;;;;9.88;5.07;;;15.60;99.90;;;;;;4986130;28;20038;-75
2023/03/23 12:01:52;;;;;;;9.65;5.35;;;15.40;99.90;;;;;;4967618;28;20047;-75
2023/03/23 12:04:44;;;;;;;20.58;5.90;;;15.30;99.90;;;;;;4986682;28;20057;-75
2023/03/23 12:07:31;;;;;;;16.00;5.65;;;15.40;99.90;;;;;;4980600;28;20068;-75
2023/03/23 12:10:06;;;;;;;16.00;4.80;;;15.40;99.90;;;;;;4987811;28;20501;-75
2023/03/23 12:12:50;;;;;;;12.80;4.78;;;15.30;99.90;;;;;;4985718;28;20122;-75
2023/03/23 12:15:58;;;;;;;12.27;3.80;;;15.30;99.90;;;;;;4987652;28;20074;-75
2023/03/23 12:18:49;;;;;;;14.68;4.45;;;15.20;99.90;;;;;;4961796;28;20057;-75
2023/03/23 12:21:30;;;;;;;18.85;3.80;;;15.30;99.90;;;;;;4985703;28;20094;-75
2023/03/23 12:24:10;;;;;;;13.43;4.63;;;15.40;99.90;;;;;;4997229;28;20138;-75
2023/03/23 12:26:44;;;;;;;13.27;4.45;;;15.60;99.90;;;;;;4975074;28;20046;-75
2023/03/23 12:29:34;;;;;;;9.77;3.95;;;15.60;99.90;;;;;;4985623;28;20420;-75
2023/03/23 12:32:10;;;;;;;10.05;4.05;;;15.40;99.90;;;;;;4973792;28;20053;-75
2023/03/23 12:35:11;;;;;;;19.10;5.00;;;15.40;99.90;;;;;;4972277;28;20467;-75
2023/03/23 12:37:56;;;;;;;13.45;4.95;;;15.40;99.90;;;;;;4968432;28;20129;-75
2023/03/23 12:40:43;;;;;;;11.45;6.45;;;15.20;99.90;;;;;;4957565;28;20046;-75
2023/03/23 12:43:23;;;;;;;15.43;5.15;;;15.10;99.90;;;;;;4987511;28;20058;-75
2023/03/23 12:45:58;;;;;;;14.00;5.68;;;15.20;99.90;;;;;;4973060;28;20057;-75
2023/03/23 12:48:33;;;;;;;17.65;5.00;;;15.20;99.90;;;;;;4987557;28;20137;-75
2023/03/23 12:51:29;;;;;;;14.52;4.93;;;15.10;99.90;;;;;;4967361;28;20158;-75
2023/03/23 12:54:05;;;;;;;12.90;4.15;;;15.00;99.90;;;;;;4987096;28;20089;-75